createdAt,value
2019-01-02T00:00:32.885Z,0
2019-01-02T00:01:13.599Z,0
2019-01-02T00:01:54.605Z,0
2019-01-02T00:02:35.423Z,0
2019-01-02T00:03:16.269Z,0
2019-01-02T00:03:57.081Z,0
2019-01-02T00:04:37.819Z,0
2019-01-02T00:05:18.573Z,0
2019-01-02T00:05:59.400Z,0
2019-01-02T00:06:40.165Z,0
2019-01-02T00:07:20.893Z,0
2019-01-02T00:08:01.572Z,0
2019-01-02T00:08:42.331Z,0
2019-01-02T00:09:23.230Z,0
2019-01-02T00:10:04.058Z,0
2019-01-02T00:10:44.843Z,0
2019-01-02T00:11:25.564Z,0
2019-01-02T00:12:06.277Z,0
2019-01-02T00:12:47.025Z,0
2019-01-02T00:13:27.787Z,0
2019-01-02T00:14:08.558Z,0
2019-01-02T00:14:49.281Z,0
2019-01-02T00:15:30.174Z,0
2019-01-02T00:16:10.987Z,0
2019-01-02T00:16:51.787Z,0
2019-01-02T00:17:32.597Z,0
2019-01-02T00:18:13.309Z,0
2019-01-02T00:18:54.166Z,0
2019-01-02T00:19:34.947Z,0
2019-01-02T00:20:15.696Z,0
2019-01-02T00:20:56.409Z,0
2019-01-02T00:21:37.132Z,0
2019-01-02T00:22:17.952Z,0
2019-01-02T00:22:58.693Z,0
2019-01-02T00:23:39.448Z,0
2019-01-02T00:24:20.247Z,0
2019-01-02T00:25:01.102Z,0
2019-01-02T00:25:41.956Z,0
2019-01-02T00:26:22.657Z,0
2019-01-02T00:27:03.393Z,0
2019-01-02T00:27:44.200Z,0
2019-01-02T00:28:25.006Z,0
2019-01-02T00:29:05.849Z,0
2019-01-02T00:29:46.585Z,0
2019-01-02T00:30:27.361Z,0
2019-01-02T00:31:08.050Z,0
2019-01-02T00:31:48.796Z,0
2019-01-02T00:32:29.655Z,0
2019-01-02T00:33:10.392Z,0
2019-01-02T00:33:51.225Z,0
2019-01-02T00:34:31.962Z,0
2019-01-02T00:35:12.740Z,0
2019-01-02T00:35:53.514Z,0
2019-01-02T00:36:34.321Z,0
2019-01-02T00:37:15.081Z,0
2019-01-02T00:37:55.780Z,0
2019-01-02T00:38:36.484Z,0
2019-01-02T00:39:17.254Z,0
2019-01-02T00:39:58.563Z,0
2019-01-02T00:40:39.264Z,0
2019-01-02T00:41:20.032Z,0
2019-01-02T00:42:00.842Z,0
2019-01-02T00:42:41.625Z,0
2019-01-02T00:43:22.904Z,0
2019-01-02T00:44:03.676Z,0
2019-01-02T00:44:44.410Z,0
2019-01-02T00:45:25.197Z,0
2019-01-02T00:46:05.969Z,0
2019-01-02T00:46:46.765Z,0
2019-01-02T00:47:27.559Z,0
2019-01-02T00:48:08.284Z,0
2019-01-02T00:48:48.976Z,0
2019-01-02T00:49:29.721Z,0
2019-01-02T00:50:10.487Z,0
2019-01-02T00:50:51.172Z,0
2019-01-02T00:51:31.877Z,0
2019-01-02T00:52:12.616Z,0
2019-01-02T00:52:53.416Z,0
2019-01-02T00:53:34.143Z,0
2019-01-02T00:54:14.915Z,0
2019-01-02T00:54:55.701Z,0
2019-01-02T00:55:36.499Z,0
2019-01-02T00:56:17.326Z,0
2019-01-02T00:56:58.033Z,0
2019-01-02T00:57:38.773Z,0
2019-01-02T00:58:19.630Z,0
2019-01-02T00:59:00.328Z,0
2019-01-02T00:59:41.032Z,0
2019-01-02T01:00:21.757Z,0
2019-01-02T01:01:02.508Z,0
2019-01-02T01:01:43.355Z,0
2019-01-02T01:02:24.091Z,0
2019-01-02T01:03:04.885Z,0
2019-01-02T01:03:45.606Z,0
2019-01-02T01:04:26.347Z,0
2019-01-02T01:05:07.067Z,0
2019-01-02T01:05:47.846Z,0
2019-01-02T01:06:28.626Z,0
2019-01-02T01:07:09.315Z,0
2019-01-02T01:07:50.051Z,0
2019-01-02T01:08:30.844Z,0
2019-01-02T01:09:11.651Z,0
2019-01-02T01:09:52.353Z,0
2019-01-02T01:10:33.086Z,0
2019-01-02T01:11:13.782Z,0
2019-01-02T01:11:54.557Z,0
2019-01-02T01:12:35.300Z,0
2019-01-02T01:13:16.125Z,0
2019-01-02T01:13:56.877Z,0
2019-01-02T01:14:37.563Z,0
2019-01-02T01:15:18.343Z,0
2019-01-02T01:15:59.115Z,0
2019-01-02T01:16:39.837Z,0
2019-01-02T01:17:20.616Z,0
2019-01-02T01:18:01.381Z,0
2019-01-02T01:18:42.181Z,0
2019-01-02T01:19:22.925Z,0
2019-01-02T01:20:03.680Z,0
2019-01-02T01:20:44.446Z,0
2019-01-02T01:21:25.229Z,0
2019-01-02T01:22:05.926Z,0
2019-01-02T01:22:46.703Z,0
2019-01-02T01:23:27.466Z,0
2019-01-02T01:24:08.153Z,0
2019-01-02T01:24:48.863Z,0
2019-01-02T01:25:29.672Z,0
2019-01-02T01:26:10.489Z,0
2019-01-02T01:26:51.223Z,0
2019-01-02T01:27:31.917Z,0
2019-01-02T01:28:12.788Z,0
2019-01-02T01:28:53.591Z,0
2019-01-02T01:29:34.309Z,0
2019-01-02T01:30:15.026Z,0
2019-01-02T01:30:55.731Z,0
2019-01-02T01:31:36.547Z,0
2019-01-02T01:32:17.316Z,0
2019-01-02T01:32:58.042Z,0
2019-01-02T01:33:38.822Z,0
2019-01-02T01:34:19.626Z,0
2019-01-02T01:35:00.442Z,0
2019-01-02T01:35:41.170Z,0
2019-01-02T01:36:21.874Z,0
2019-01-02T01:37:02.574Z,0
2019-01-02T01:37:43.321Z,0
2019-01-02T01:38:24.125Z,0
2019-01-02T01:39:04.935Z,0
2019-01-02T01:39:45.723Z,0
2019-01-02T01:40:26.423Z,0
2019-01-02T01:41:07.163Z,0
2019-01-02T01:43:38.019Z,0
2019-01-02T01:44:18.805Z,0
2019-01-02T01:44:59.561Z,0
2019-01-02T01:45:40.285Z,0
2019-01-02T01:46:21.086Z,0
2019-01-02T01:47:01.865Z,0
2019-01-02T01:47:42.614Z,0
2019-01-02T01:48:23.315Z,0
2019-01-02T01:49:04.037Z,0
2019-01-02T01:49:44.854Z,0
2019-01-02T01:50:25.632Z,0
2019-01-02T01:51:06.336Z,0
2019-01-02T01:51:47.121Z,0
2019-01-02T01:52:27.963Z,0
2019-01-02T01:53:08.730Z,0
2019-01-02T01:53:49.471Z,0
2019-01-02T01:54:30.197Z,0
2019-01-02T01:55:10.970Z,0
2019-01-02T01:55:51.747Z,0
2019-01-02T01:56:32.439Z,0
2019-01-02T01:57:13.155Z,0
2019-01-02T01:57:53.862Z,0
2019-01-02T01:58:34.707Z,0
2019-01-02T01:59:15.533Z,0
2019-01-02T01:59:56.305Z,0
2019-01-02T02:00:36.993Z,0
2019-01-02T02:01:17.691Z,0
2019-01-02T02:01:58.379Z,0
2019-01-02T02:02:39.146Z,0
2019-01-02T02:03:19.908Z,0
2019-01-02T02:04:00.617Z,0
2019-01-02T02:04:41.385Z,0
2019-01-02T02:05:22.193Z,0
2019-01-02T02:06:02.968Z,0
2019-01-02T02:06:43.774Z,0
2019-01-02T02:07:24.520Z,0
2019-01-02T02:08:05.236Z,0
2019-01-02T02:08:45.949Z,0
2019-01-02T02:09:26.737Z,0
2019-01-02T02:10:07.521Z,0
2019-01-02T02:10:48.297Z,0
2019-01-02T02:11:28.990Z,0
2019-01-02T02:12:09.749Z,0
2019-01-02T02:12:50.597Z,0
2019-01-02T02:13:31.355Z,0
2019-01-02T02:14:12.063Z,0
2019-01-02T02:14:52.761Z,0
2019-01-02T02:15:33.500Z,0
2019-01-02T02:16:14.273Z,0
2019-01-02T02:16:55.011Z,0
2019-01-02T02:17:35.834Z,0
2019-01-02T02:18:16.521Z,0
2019-01-02T02:18:57.195Z,0
2019-01-02T02:19:37.934Z,0
2019-01-02T02:20:18.720Z,0
2019-01-02T02:20:59.445Z,0
2019-01-02T02:21:40.235Z,0
2019-01-02T02:22:21.007Z,0
2019-01-02T02:23:01.802Z,0
2019-01-02T02:23:42.612Z,0
2019-01-02T02:24:23.333Z,0
2019-01-02T02:25:04.050Z,0
2019-01-02T02:25:44.831Z,0
2019-01-02T02:26:25.586Z,0
2019-01-02T02:27:06.293Z,0
2019-01-02T02:27:47.009Z,0
2019-01-02T02:28:27.779Z,0
2019-01-02T02:29:08.600Z,0
2019-01-02T02:29:49.298Z,0
2019-01-02T02:30:30.058Z,0
2019-01-02T02:31:10.838Z,0
2019-01-02T02:31:51.606Z,0
2019-01-02T02:32:32.396Z,0
2019-01-02T02:33:13.101Z,0
2019-01-02T02:33:53.838Z,0
2019-01-02T02:34:34.570Z,0
2019-01-02T02:35:15.334Z,0
2019-01-02T02:35:56.173Z,0
2019-01-02T02:36:36.993Z,0
2019-01-02T02:37:17.706Z,0
2019-01-02T02:37:58.447Z,0
2019-01-02T02:38:39.189Z,0
2019-01-02T02:39:19.985Z,0
2019-01-02T02:40:00.699Z,0
2019-01-02T02:40:41.383Z,0
2019-01-02T02:41:22.184Z,0
2019-01-02T02:42:02.982Z,0
2019-01-02T02:42:43.814Z,0
2019-01-02T02:43:24.607Z,0
2019-01-02T02:44:05.311Z,0
2019-01-02T02:44:46.010Z,0
2019-01-02T02:45:26.776Z,0
2019-01-02T02:46:07.570Z,0
2019-01-02T02:46:48.352Z,0
2019-01-02T02:47:29.064Z,0
2019-01-02T02:48:09.838Z,0
2019-01-02T02:48:50.635Z,0
2019-01-02T02:49:31.485Z,0
2019-01-02T02:50:12.196Z,0
2019-01-02T02:50:52.910Z,0
2019-01-02T02:51:33.608Z,0
2019-01-02T02:52:14.451Z,0
2019-01-02T02:52:55.226Z,0
2019-01-02T02:53:36.025Z,0
2019-01-02T02:54:16.766Z,0
2019-01-02T02:54:57.517Z,0
2019-01-02T02:55:38.312Z,0
2019-01-02T02:56:19.098Z,0
2019-01-02T02:56:59.832Z,0
2019-01-02T02:57:40.536Z,0
2019-01-02T02:58:21.252Z,0
2019-01-02T02:59:02.091Z,0
2019-01-02T02:59:42.832Z,0
2019-01-02T03:00:23.617Z,0
2019-01-02T03:01:04.399Z,0
2019-01-02T03:01:45.179Z,0
2019-01-02T03:02:25.990Z,0
2019-01-02T03:03:06.735Z,0
2019-01-02T03:03:47.455Z,0
2019-01-02T03:04:28.257Z,0
2019-01-02T03:05:08.981Z,0
2019-01-02T03:05:49.746Z,0
2019-01-02T03:06:30.449Z,0
2019-01-02T03:07:11.172Z,0
2019-01-02T03:07:52.029Z,0
2019-01-02T03:08:32.870Z,0
2019-01-02T03:09:13.696Z,0
2019-01-02T03:09:54.438Z,0
2019-01-02T03:10:35.128Z,0
2019-01-02T03:11:15.853Z,0
2019-01-02T03:11:56.651Z,0
2019-01-02T03:12:37.439Z,0
2019-01-02T03:13:18.129Z,0
2019-01-02T03:13:58.903Z,0
2019-01-02T03:14:39.652Z,0
2019-01-02T03:15:20.551Z,0
2019-01-02T03:16:01.272Z,0
2019-01-02T03:16:41.981Z,0
2019-01-02T03:17:22.685Z,0
2019-01-02T03:18:03.455Z,0
2019-01-02T03:18:44.281Z,0
2019-01-02T03:19:25.126Z,0
2019-01-02T03:20:05.883Z,0
2019-01-02T03:20:46.621Z,0
2019-01-02T03:21:27.378Z,0
2019-01-02T03:22:08.214Z,0
2019-01-02T03:22:48.969Z,0
2019-01-02T03:23:29.701Z,0
2019-01-02T03:24:10.412Z,0
2019-01-02T03:24:51.209Z,0
2019-01-02T03:25:32.005Z,0
2019-01-02T03:26:12.796Z,0
2019-01-02T03:26:53.563Z,0
2019-01-02T03:27:34.245Z,0
2019-01-02T03:28:14.956Z,0
2019-01-02T03:28:55.684Z,0
2019-01-02T03:29:36.547Z,0
2019-01-02T03:30:17.276Z,0
2019-01-02T03:30:57.975Z,0
2019-01-02T03:31:38.761Z,0
2019-01-02T03:32:19.563Z,0
2019-01-02T03:33:00.322Z,0
2019-01-02T03:33:41.057Z,0
2019-01-02T03:34:21.805Z,0
2019-01-02T03:35:02.635Z,0
2019-01-02T03:35:43.366Z,0
2019-01-02T03:36:24.108Z,0
2019-01-02T03:37:04.831Z,0
2019-01-02T03:37:45.645Z,0
2019-01-02T03:38:26.410Z,0
2019-01-02T03:39:07.138Z,0
2019-01-02T03:39:47.908Z,0
2019-01-02T03:40:28.717Z,0
2019-01-02T03:41:09.544Z,0
2019-01-02T03:41:50.275Z,0
2019-01-02T03:42:31.001Z,0
2019-01-02T03:43:11.777Z,0
2019-01-02T03:43:52.517Z,0
2019-01-02T03:44:33.314Z,0
2019-01-02T03:45:14.094Z,0
2019-01-02T03:45:54.933Z,0
2019-01-02T03:46:35.664Z,0
2019-01-02T03:47:16.392Z,0
2019-01-02T03:47:57.195Z,0
2019-01-02T03:48:37.953Z,0
2019-01-02T03:49:18.710Z,0
2019-01-02T03:49:59.454Z,0
2019-01-02T03:50:40.196Z,0
2019-01-02T03:51:21.052Z,0
2019-01-02T03:52:01.824Z,0
2019-01-02T03:52:42.523Z,0
2019-01-02T03:53:23.301Z,0
2019-01-02T03:54:04.063Z,0
2019-01-02T03:54:44.861Z,0
2019-01-02T03:55:25.585Z,0
2019-01-02T03:56:06.428Z,0
2019-01-02T03:56:47.237Z,0
2019-01-02T03:57:28.022Z,0
2019-01-02T03:58:08.737Z,0
2019-01-02T03:58:49.449Z,0
2019-01-02T03:59:30.187Z,0
2019-01-02T04:00:11.017Z,0
2019-01-02T04:00:51.886Z,0
2019-01-02T04:01:32.681Z,0
2019-01-02T04:02:13.406Z,0
2019-01-02T04:02:54.097Z,0
2019-01-02T04:03:34.793Z,0
2019-01-02T04:04:15.586Z,0
2019-01-02T04:04:56.288Z,0
2019-01-02T04:05:37.010Z,0
2019-01-02T04:06:17.790Z,0
2019-01-02T04:06:58.575Z,0
2019-01-02T04:07:39.385Z,0
2019-01-02T04:08:20.120Z,0
2019-01-02T04:09:00.846Z,0
2019-01-02T04:09:41.656Z,0
2019-01-02T04:10:22.384Z,0
2019-01-02T04:11:03.089Z,0
2019-01-02T04:11:43.778Z,0
2019-01-02T04:12:24.502Z,0
2019-01-02T04:13:05.325Z,0
2019-01-02T04:13:46.074Z,0
2019-01-02T04:14:26.821Z,0
2019-01-02T04:15:07.660Z,0
2019-01-02T04:15:48.386Z,0
2019-01-02T04:16:29.194Z,0
2019-01-02T04:17:09.887Z,0
2019-01-02T04:17:50.613Z,0
2019-01-02T04:18:31.392Z,0
2019-01-02T04:19:12.111Z,0
2019-01-02T04:19:52.927Z,0
2019-01-02T04:20:33.797Z,0
2019-01-02T04:21:14.598Z,0
2019-01-02T04:21:55.331Z,0
2019-01-02T04:22:36.137Z,0
2019-01-02T04:23:16.946Z,0
2019-01-02T04:23:57.631Z,0
2019-01-02T04:24:38.369Z,0
2019-01-02T04:25:19.141Z,0
2019-01-02T04:25:59.968Z,0
2019-01-02T04:26:40.764Z,0
2019-01-02T04:27:21.551Z,0
2019-01-02T04:28:02.261Z,0
2019-01-02T04:28:42.967Z,0
2019-01-02T04:29:23.727Z,0
2019-01-02T04:30:04.443Z,0
2019-01-02T04:30:45.280Z,0
2019-01-02T04:31:26.023Z,0
2019-01-02T04:32:06.748Z,0
2019-01-02T04:32:47.539Z,0
2019-01-02T04:33:28.325Z,0
2019-01-02T04:34:09.106Z,0
2019-01-02T04:34:49.791Z,0
2019-01-02T04:35:30.515Z,0
2019-01-02T04:36:11.304Z,0
2019-01-02T04:36:52.123Z,0
2019-01-02T04:37:32.911Z,0
2019-01-02T04:38:13.732Z,0
2019-01-02T04:38:54.457Z,0
2019-01-02T04:39:35.171Z,0
2019-01-02T04:40:16.011Z,0
2019-01-02T04:40:56.781Z,0
2019-01-02T04:41:37.525Z,0
2019-01-02T04:42:18.214Z,0
2019-01-02T04:42:58.948Z,0
2019-01-02T04:43:39.750Z,0
2019-01-02T04:44:20.496Z,0
2019-01-02T04:45:01.211Z,0
2019-01-02T04:45:42.048Z,0
2019-01-02T04:46:22.820Z,0
2019-01-02T04:47:03.597Z,0
2019-01-02T04:47:44.298Z,0
2019-01-02T04:48:25.078Z,0
2019-01-02T04:49:05.918Z,0
2019-01-02T04:49:46.647Z,0
2019-01-02T04:50:27.359Z,0
2019-01-02T04:51:08.092Z,0
2019-01-02T04:51:48.859Z,0
2019-01-02T04:52:29.625Z,0
2019-01-02T04:53:10.420Z,0
2019-01-02T04:53:51.170Z,0
2019-01-02T04:54:31.861Z,0
2019-01-02T04:55:12.554Z,0
2019-01-02T04:55:53.286Z,0
2019-01-02T04:56:34.102Z,0
2019-01-02T04:57:14.864Z,0
2019-01-02T04:57:55.572Z,0
2019-01-02T04:58:36.383Z,0
2019-01-02T04:59:17.121Z,0
2019-01-02T04:59:57.943Z,0
2019-01-02T05:00:38.681Z,0
2019-01-02T05:01:19.443Z,0
2019-01-02T05:02:00.185Z,0
2019-01-02T05:02:40.929Z,0
2019-01-02T05:03:21.685Z,0
2019-01-02T05:04:02.482Z,0
2019-01-02T05:04:43.201Z,0
2019-01-02T05:05:23.904Z,0
2019-01-02T05:06:04.697Z,0
2019-01-02T05:06:45.452Z,0
2019-01-02T05:07:26.147Z,0
2019-01-02T05:08:06.963Z,0
2019-01-02T05:08:47.696Z,0
2019-01-02T05:09:28.511Z,0
2019-01-02T05:10:09.332Z,0
2019-01-02T05:10:50.113Z,0
2019-01-02T05:11:30.853Z,0
2019-01-02T05:12:11.592Z,0
2019-01-02T05:12:52.310Z,0
2019-01-02T05:13:33.078Z,0
2019-01-02T05:14:13.822Z,0
2019-01-02T05:14:54.574Z,0
2019-01-02T05:15:35.317Z,0
2019-01-02T05:16:16.084Z,0
2019-01-02T05:16:56.902Z,0
2019-01-02T05:17:37.681Z,0
2019-01-02T05:18:18.410Z,0
2019-01-02T05:19:00.176Z,0
2019-01-02T05:19:40.918Z,0
2019-01-02T05:20:21.638Z,0
2019-01-02T05:21:02.423Z,0
2019-01-02T05:21:43.147Z,0
2019-01-02T05:22:23.942Z,0
2019-01-02T05:23:04.690Z,0
2019-01-02T05:23:45.460Z,0
2019-01-02T05:24:26.194Z,0
2019-01-02T05:25:06.905Z,0
2019-01-02T05:25:47.704Z,0
2019-01-02T05:26:28.468Z,0
2019-01-02T05:27:09.161Z,0
2019-01-02T05:27:49.893Z,0
2019-01-02T05:28:30.691Z,0
2019-01-02T05:29:11.512Z,0
2019-01-02T05:29:52.347Z,0
2019-01-02T05:30:33.109Z,0
2019-01-02T05:31:13.863Z,0
2019-01-02T05:31:54.591Z,0
2019-01-02T05:32:35.361Z,0
2019-01-02T05:33:16.140Z,0
2019-01-02T05:33:56.893Z,0
2019-01-02T05:34:37.628Z,0
2019-01-02T05:35:18.366Z,0
2019-01-02T05:35:59.141Z,0
2019-01-02T05:36:39.925Z,0
2019-01-02T05:37:20.642Z,0
2019-01-02T05:38:01.386Z,0
2019-01-02T05:38:42.113Z,0
2019-01-02T05:39:22.851Z,0
2019-01-02T05:40:03.670Z,0
2019-01-02T05:40:44.445Z,0
2019-01-02T05:41:25.166Z,0
2019-01-02T05:42:05.942Z,0
2019-01-02T05:42:46.723Z,0
2019-01-02T05:43:27.549Z,0
2019-01-02T05:44:08.312Z,0
2019-01-02T05:44:49.051Z,0
2019-01-02T05:45:29.763Z,0
2019-01-02T05:46:10.567Z,0
2019-01-02T05:46:51.299Z,0
2019-01-02T05:47:32.074Z,0
2019-01-02T05:48:12.838Z,0
2019-01-02T05:48:53.561Z,0
2019-01-02T05:49:34.334Z,0
2019-01-02T05:50:15.114Z,0
2019-01-02T05:50:55.914Z,0
2019-01-02T05:51:36.613Z,0
2019-01-02T05:52:17.330Z,0
2019-01-02T05:52:58.142Z,0
2019-01-02T05:53:38.876Z,0
2019-01-02T05:54:20.130Z,0
2019-01-02T05:55:00.442Z,0
2019-01-02T05:55:41.180Z,0
2019-01-02T05:56:21.996Z,0
2019-01-02T05:57:02.706Z,0
2019-01-02T05:57:43.451Z,0
2019-01-02T05:58:24.268Z,0
2019-01-02T05:59:05.025Z,0
2019-01-02T05:59:45.758Z,0
2019-01-02T06:00:26.447Z,0
2019-01-02T06:01:07.156Z,0
2019-01-02T06:01:47.927Z,0
2019-01-02T06:02:28.737Z,0
2019-01-02T06:03:09.530Z,0
2019-01-02T06:03:50.250Z,0
2019-01-02T06:04:31.045Z,0
2019-01-02T06:05:11.822Z,0
2019-01-02T06:05:52.601Z,0
2019-01-02T06:06:33.411Z,0
2019-01-02T06:07:14.116Z,0
2019-01-02T06:07:54.899Z,0
2019-01-02T06:08:35.634Z,0
2019-01-02T06:09:16.423Z,0
2019-01-02T06:09:57.167Z,0
2019-01-02T06:10:37.860Z,0
2019-01-02T06:11:18.667Z,0
2019-01-02T06:11:59.454Z,0
2019-01-02T06:12:40.177Z,0
2019-01-02T06:13:20.861Z,0
2019-01-02T06:14:01.569Z,0
2019-01-02T06:14:42.419Z,0
2019-01-02T06:15:23.166Z,0
2019-01-02T06:16:03.856Z,0
2019-01-02T06:16:44.667Z,0
2019-01-02T06:17:25.471Z,0
2019-01-02T06:18:06.275Z,0
2019-01-02T06:18:47.039Z,0
2019-01-02T06:19:27.756Z,0
2019-01-02T06:20:08.463Z,0
2019-01-02T06:20:49.184Z,0
2019-01-02T06:21:29.982Z,0
2019-01-02T06:22:10.788Z,0
2019-01-02T06:22:51.597Z,0
2019-01-02T06:23:32.303Z,0
2019-01-02T06:24:13.051Z,0
2019-01-02T06:24:53.843Z,0
2019-01-02T06:25:34.587Z,0
2019-01-02T06:26:15.311Z,0
2019-01-02T06:26:55.976Z,0
2019-01-02T06:27:36.741Z,0
2019-01-02T06:28:17.488Z,0
2019-01-02T06:28:58.211Z,0
2019-01-02T06:29:38.926Z,0
2019-01-02T06:30:19.717Z,0
2019-01-02T06:31:00.564Z,0
2019-01-02T06:31:41.348Z,0
2019-01-02T06:32:22.084Z,0
2019-01-02T06:33:02.850Z,0
2019-01-02T06:33:43.619Z,0
2019-01-02T06:34:24.302Z,0
2019-01-02T06:35:05.019Z,0
2019-01-02T06:35:45.725Z,0
2019-01-02T06:36:27.164Z,0
2019-01-02T06:37:07.227Z,0
2019-01-02T06:37:48.035Z,0
2019-01-02T06:38:28.780Z,0
2019-01-02T06:39:09.551Z,0
2019-01-02T06:39:50.289Z,0
2019-01-02T06:40:31.099Z,0
2019-01-02T06:41:11.933Z,0
2019-01-02T06:41:52.716Z,0
2019-01-02T06:42:33.399Z,0
2019-01-02T06:43:14.196Z,0
2019-01-02T06:43:54.979Z,0
2019-01-02T06:44:35.773Z,0
2019-01-02T06:45:16.471Z,0
2019-01-02T06:45:57.181Z,0
2019-01-02T06:46:37.988Z,0
2019-01-02T06:47:18.816Z,0
2019-01-02T06:47:59.580Z,0
2019-01-02T06:48:40.377Z,0
2019-01-02T06:49:21.148Z,0
2019-01-02T06:50:01.884Z,0
2019-01-02T06:50:42.656Z,0
2019-01-02T06:51:23.419Z,0
2019-01-02T06:52:04.128Z,0
2019-01-02T06:52:44.822Z,0
2019-01-02T06:53:25.534Z,0
2019-01-02T06:54:06.365Z,0
2019-01-02T06:54:47.147Z,0
2019-01-02T06:55:27.937Z,0
2019-01-02T06:56:08.643Z,0
2019-01-02T06:56:49.350Z,0
2019-01-02T06:57:30.066Z,0
2019-01-02T06:58:10.890Z,0
2019-01-02T06:58:52.589Z,0
2019-01-02T06:59:32.342Z,0
2019-01-02T07:00:13.154Z,0
2019-01-02T07:00:53.918Z,0
2019-01-02T07:01:34.696Z,0
2019-01-02T07:02:15.437Z,0
2019-01-02T07:02:56.134Z,0
2019-01-02T07:03:36.973Z,0
2019-01-02T07:04:17.733Z,0
2019-01-02T07:04:58.443Z,4
2019-01-02T07:05:39.155Z,4
2019-01-02T07:06:19.882Z,4
2019-01-02T07:07:00.727Z,0
2019-01-02T07:07:41.459Z,0
2019-01-02T07:08:22.175Z,0
2019-01-02T07:09:02.977Z,0
2019-01-02T07:09:43.761Z,0
2019-01-02T07:10:24.565Z,4
2019-01-02T07:11:05.257Z,4
2019-01-02T07:11:45.967Z,4
2019-01-02T07:12:26.665Z,0
2019-01-02T07:13:07.415Z,0
2019-01-02T07:13:48.205Z,4
2019-01-02T07:14:28.988Z,4
2019-01-02T07:15:09.727Z,4
2019-01-02T07:15:50.464Z,4
2019-01-02T07:16:31.224Z,4
2019-01-02T07:17:12.031Z,4
2019-01-02T07:17:52.760Z,4
2019-01-02T07:18:33.487Z,4
2019-01-02T07:19:14.196Z,8
2019-01-02T07:19:55.025Z,8
2019-01-02T07:20:35.811Z,4
2019-01-02T07:21:16.626Z,8
2019-01-02T07:21:57.386Z,8
2019-01-02T07:22:38.295Z,8
2019-01-02T07:23:19.003Z,8
2019-01-02T07:24:00.191Z,8
2019-01-02T07:24:40.902Z,12
2019-01-02T07:25:21.598Z,12
2019-01-02T07:26:02.380Z,8
2019-01-02T07:26:43.185Z,12
2019-01-02T07:27:23.944Z,12
2019-01-02T07:28:04.746Z,12
2019-01-02T07:28:45.492Z,12
2019-01-02T07:29:26.232Z,12
2019-01-02T07:30:06.972Z,16
2019-01-02T07:30:47.748Z,12
2019-01-02T07:31:28.578Z,16
2019-01-02T07:32:09.461Z,16
2019-01-02T07:32:50.173Z,16
2019-01-02T07:33:30.874Z,16
2019-01-02T07:34:11.690Z,16
2019-01-02T07:34:52.435Z,20
2019-01-02T07:35:33.185Z,16
2019-01-02T07:36:13.897Z,20
2019-01-02T07:36:54.673Z,20
2019-01-02T07:37:35.484Z,20
2019-01-02T07:38:16.216Z,20
2019-01-02T07:38:56.889Z,24
2019-01-02T07:39:37.690Z,24
2019-01-02T07:40:18.509Z,20
2019-01-02T07:40:59.399Z,24
2019-01-02T07:41:40.151Z,24
2019-01-02T07:42:20.875Z,28
2019-01-02T07:43:01.708Z,24
2019-01-02T07:43:42.425Z,24
2019-01-02T07:44:23.163Z,28
2019-01-02T07:45:03.849Z,28
2019-01-02T07:45:44.575Z,28
2019-01-02T07:46:25.400Z,28
2019-01-02T07:47:06.153Z,28
2019-01-02T07:47:46.962Z,32
2019-01-02T07:48:27.647Z,28
2019-01-02T07:49:08.326Z,32
2019-01-02T07:49:49.023Z,32
2019-01-02T07:50:29.795Z,32
2019-01-02T07:51:10.527Z,32
2019-01-02T07:51:51.254Z,32
2019-01-02T07:52:32.056Z,36
2019-01-02T07:53:12.853Z,32
2019-01-02T07:53:53.672Z,36
2019-01-02T07:54:34.397Z,32
2019-01-02T07:55:15.087Z,36
2019-01-02T07:55:55.791Z,36
2019-01-02T07:56:36.520Z,36
2019-01-02T07:57:17.368Z,36
2019-01-02T07:57:58.136Z,40
2019-01-02T07:58:38.913Z,36
2019-01-02T07:59:19.630Z,40
2019-01-02T08:00:00.404Z,44
2019-01-02T08:00:41.178Z,40
2019-01-02T08:01:21.851Z,44
2019-01-02T08:02:02.559Z,44
2019-01-02T08:02:43.264Z,40
2019-01-02T08:03:24.049Z,44
2019-01-02T08:04:04.828Z,44
2019-01-02T08:04:45.693Z,44
2019-01-02T08:05:26.423Z,44
2019-01-02T08:06:07.196Z,48
2019-01-02T08:06:47.893Z,44
2019-01-02T08:07:28.621Z,48
2019-01-02T08:08:09.438Z,48
2019-01-02T08:08:50.180Z,48
2019-01-02T08:09:30.900Z,48
2019-01-02T08:10:11.776Z,48
2019-01-02T08:10:52.520Z,52
2019-01-02T08:11:33.386Z,48
2019-01-02T08:12:14.118Z,48
2019-01-02T08:12:54.831Z,52
2019-01-02T08:13:35.617Z,52
2019-01-02T08:14:16.358Z,52
2019-01-02T08:15:02.958Z,52
2019-01-02T08:15:37.836Z,52
2019-01-02T08:16:18.584Z,56
2019-01-02T08:16:59.369Z,52
2019-01-02T08:17:40.108Z,56
2019-01-02T08:18:20.874Z,56
2019-01-02T08:19:01.650Z,52
2019-01-02T08:19:42.419Z,56
2019-01-02T08:20:23.226Z,56
2019-01-02T08:21:03.940Z,56
2019-01-02T08:21:44.643Z,60
2019-01-02T08:22:25.392Z,60
2019-01-02T08:23:06.170Z,56
2019-01-02T08:23:46.940Z,60
2019-01-02T08:24:27.748Z,60
2019-01-02T08:25:08.508Z,60
2019-01-02T08:25:49.252Z,64
2019-01-02T08:26:30.046Z,64
2019-01-02T08:27:10.790Z,64
2019-01-02T08:27:51.467Z,64
2019-01-02T08:28:32.151Z,64
2019-01-02T08:29:12.901Z,68
2019-01-02T08:29:53.728Z,68
2019-01-02T08:30:34.475Z,68
2019-01-02T08:31:15.245Z,72
2019-01-02T08:31:56.013Z,72
2019-01-02T08:32:36.813Z,72
2019-01-02T08:33:17.644Z,72
2019-01-02T08:33:58.348Z,72
2019-01-02T08:34:39.113Z,76
2019-01-02T08:35:19.937Z,76
2019-01-02T08:36:00.665Z,76
2019-01-02T08:36:41.399Z,80
2019-01-02T08:37:22.116Z,80
2019-01-02T08:38:02.874Z,80
2019-01-02T08:38:43.739Z,84
2019-01-02T08:39:24.490Z,84
2019-01-02T08:40:05.256Z,84
2019-01-02T08:40:45.988Z,84
2019-01-02T08:41:26.796Z,88
2019-01-02T08:42:07.550Z,88
2019-01-02T08:42:48.310Z,88
2019-01-02T08:43:29.082Z,92
2019-01-02T08:44:09.805Z,92
2019-01-02T08:44:50.551Z,92
2019-01-02T08:45:31.405Z,96
2019-01-02T08:46:12.204Z,96
2019-01-02T08:46:52.909Z,96
2019-01-02T08:47:33.642Z,100
2019-01-02T08:48:14.409Z,96
2019-01-02T08:48:55.175Z,104
2019-01-02T08:49:35.912Z,104
2019-01-02T08:50:16.616Z,104
2019-01-02T08:50:57.346Z,104
2019-01-02T08:51:38.110Z,108
2019-01-02T08:52:18.845Z,108
2019-01-02T08:52:59.596Z,112
2019-01-02T08:53:40.390Z,112
2019-01-02T08:54:21.232Z,112
2019-01-02T08:55:02.075Z,116
2019-01-02T08:55:42.785Z,120
2019-01-02T08:56:23.542Z,120
2019-01-02T08:57:04.253Z,120
2019-01-02T08:57:45.076Z,124
2019-01-02T08:58:25.914Z,124
2019-01-02T08:59:06.653Z,124
2019-01-02T08:59:47.414Z,128
2019-01-02T09:00:28.141Z,132
2019-01-02T09:01:08.912Z,132
2019-01-02T09:01:49.716Z,136
2019-01-02T09:02:30.437Z,136
2019-01-02T09:03:11.143Z,140
2019-01-02T09:03:51.908Z,140
2019-01-02T09:04:32.656Z,140
2019-01-02T09:05:13.430Z,140
2019-01-02T09:05:54.275Z,144
2019-01-02T09:06:34.971Z,144
2019-01-02T09:07:15.685Z,148
2019-01-02T09:07:56.428Z,152
2019-01-02T09:08:37.189Z,152
2019-01-02T09:09:18.042Z,152
2019-01-02T09:09:58.786Z,156
2019-01-02T09:10:39.539Z,156
2019-01-02T09:11:20.363Z,160
2019-01-02T09:12:01.141Z,160
2019-01-02T09:12:41.965Z,164
2019-01-02T09:13:22.718Z,164
2019-01-02T09:14:03.423Z,168
2019-01-02T09:14:44.260Z,168
2019-01-02T09:15:25.029Z,168
2019-01-02T09:16:05.827Z,172
2019-01-02T09:16:46.692Z,172
2019-01-02T09:17:27.390Z,172
2019-01-02T09:18:08.122Z,176
2019-01-02T09:18:48.889Z,176
2019-01-02T09:19:29.608Z,180
2019-01-02T09:20:10.313Z,180
2019-01-02T09:20:51.019Z,180
2019-01-02T09:21:31.826Z,184
2019-01-02T09:22:12.657Z,184
2019-01-02T09:22:53.375Z,184
2019-01-02T09:23:34.137Z,188
2019-01-02T09:24:14.944Z,188
2019-01-02T09:24:55.791Z,188
2019-01-02T09:25:36.606Z,192
2019-01-02T09:26:17.328Z,192
2019-01-02T09:26:58.080Z,192
2019-01-02T09:27:38.929Z,196
2019-01-02T09:28:19.608Z,200
2019-01-02T09:29:00.308Z,200
2019-01-02T09:29:41.030Z,204
2019-01-02T09:30:21.817Z,204
2019-01-02T09:31:02.647Z,208
2019-01-02T09:31:43.472Z,204
2019-01-02T09:32:24.271Z,208
2019-01-02T09:33:04.955Z,208
2019-01-02T09:33:52.006Z,212
2019-01-02T09:34:26.412Z,212
2019-01-02T09:35:07.225Z,212
2019-01-02T09:35:47.979Z,216
2019-01-02T09:36:28.661Z,216
2019-01-02T09:37:09.413Z,216
2019-01-02T09:37:50.203Z,216
2019-01-02T09:38:31.033Z,220
2019-01-02T09:39:11.739Z,220
2019-01-02T09:39:52.458Z,220
2019-01-02T09:40:33.202Z,220
2019-01-02T09:41:13.961Z,224
2019-01-02T09:41:54.749Z,224
2019-01-02T09:42:35.552Z,224
2019-01-02T09:43:16.269Z,224
2019-01-02T09:43:57.011Z,224
2019-01-02T09:44:37.804Z,228
2019-01-02T09:45:18.562Z,228
2019-01-02T09:45:59.333Z,232
2019-01-02T09:46:40.076Z,228
2019-01-02T09:47:20.897Z,232
2019-01-02T09:48:01.955Z,232
2019-01-02T09:48:42.715Z,232
2019-01-02T09:49:23.465Z,236
2019-01-02T09:50:04.230Z,236
2019-01-02T09:50:44.936Z,236
2019-01-02T09:51:25.654Z,240
2019-01-02T09:52:06.451Z,240
2019-01-02T09:52:47.177Z,240
2019-01-02T09:53:27.887Z,240
2019-01-02T09:54:08.663Z,240
2019-01-02T09:54:49.487Z,244
2019-01-02T09:55:30.308Z,244
2019-01-02T09:56:11.046Z,244
2019-01-02T09:56:51.772Z,248